Time;durP1;ratioP1;P1;durP2;ratioP2;P2;SDS_P1;SDS_P2;PMS_P1;PMS_P2;Temp;Humidity;BMP_temperature;BMP_pressure;BME280_temperature;BME280_humidity;BME280_pressure;Samples;Min_cycle;Max_cycle;Signal;HPM_P1;HPM_P2
2021/07/13 00:00:48;;;;;;;6.73;6.27;;;21.00;90.20;;;;;;5020426;28;20403;-92
2021/07/13 00:03:24;;;;;;;6.30;6.10;;;23.80;91.70;;;;;;5037668;28;20449;-93
2021/07/13 00:06:00;;;;;;;7.63;7.03;;;23.20;91.10;;;;;;5020751;28;20412;-94
2021/07/13 00:08:52;;;;;;;6.77;6.57;;;21.00;90.50;;;;;;5027363;28;20418;-93
2021/07/13 00:11:30;;;;;;;6.73;6.50;;;24.00;91.50;;;;;;5019727;28;20451;-93
2021/07/13 00:14:31;;;;;;;6.73;6.50;;;23.90;91.70;;;;;;5038219;28;20430;-94
2021/07/13 00:17:09;;;;;;;7.07;6.57;;;24.00;91.80;;;;;;5021702;28;20432;-93
2021/07/13 00:20:03;;;;;;;7.10;6.80;;;22.40;91.00;;;;;;4987195;28;20425;-93
2021/07/13 00:22:53;;;;;;;7.37;6.83;;;23.90;92.20;;;;;;5037771;28;20419;-92
2021/07/13 00:25:47;;;;;;;6.20;6.00;;;21.00;91.10;;;;;;5020997;28;20403;-92
2021/07/13 00:28:43;;;;;;;7.90;7.50;;;23.80;92.30;;;;;;4994401;28;20444;-93
2021/07/13 00:31:16;;;;;;;6.43;6.10;;;23.80;93.40;;;;;;5021272;28;20460;-93
2021/07/13 00:33:49;;;;;;;8.00;7.20;;;21.10;92.00;;;;;;5036947;28;20418;-94
2021/07/13 00:36:42;;;;;;;7.40;7.00;;;21.00;90.70;;;;;;5038597;28;20415;-93
2021/07/13 00:39:14;;;;;;;6.60;6.30;;;20.70;90.70;;;;;;4990262;28;20439;-91
2021/07/13 00:45:42;;;;;;;7.00;6.60;;;23.30;92.30;;;;;;5039789;28;20387;-93
2021/07/13 00:52:00;;;;;;;8.33;7.87;;;23.70;93.60;;;;;;5038733;28;20486;-92
2021/07/13 00:54:56;;;;;;;9.03;8.43;;;23.70;93.80;;;;;;5009863;28;20452;-93
2021/07/13 00:57:51;;;;;;;9.07;8.57;;;21.90;93.10;;;;;;5037544;28;20433;-93
2021/07/13 01:00:42;;;;;;;8.70;8.00;;;21.00;92.90;;;;;;5019225;28;20504;-92
2021/07/13 01:03:10;;;;;;;8.27;7.83;;;23.60;94.70;;;;;;5035242;28;20456;-92
2021/07/13 01:05:44;;;;;;;7.47;7.13;;;20.60;93.30;;;;;;5020489;28;20487;-93
2021/07/13 01:09:15;;;;;;;7.50;7.10;;;21.70;94.10;;;;;;5005234;28;20391;-93
2021/07/13 01:12:17;;;;;;;7.77;7.37;;;19.60;92.30;;;;;;5018564;28;20579;-93
2021/07/13 01:15:03;;;;;;;8.50;7.80;;;23.30;94.20;;;;;;5019566;28;20419;-92
2021/07/13 01:18:25;;;;;;;8.77;8.27;;;23.50;95.00;;;;;;5003865;28;20424;-92
2021/07/13 01:23:56;;;;;;;7.67;7.13;;;20.40;95.30;;;;;;5774904;23;20526;-92
2021/07/13 01:26:45;;;;;;;11.97;10.97;;;20.30;96.50;;;;;;5038677;28;20407;-92
2021/07/13 01:34:39;;;;;;;10.47;9.77;;;19.80;99.30;;;;;;5668986;23;20496;-92
2021/07/13 01:37:11;;;;;;;10.37;9.80;;;19.70;99.90;;;;;;5019382;28;20450;-91
2021/07/13 01:39:42;;;;;;;12.97;11.93;;;19.70;99.90;;;;;;5015441;28;20958;-92
2021/07/13 01:42:10;;;;;;;13.70;12.80;;;19.60;99.90;;;;;;5010687;28;20454;-91
2021/07/13 01:44:37;;;;;;;13.67;12.70;;;19.60;99.90;;;;;;5014545;28;20419;-90
2021/07/13 01:47:10;;;;;;;15.93;14.63;;;19.50;99.90;;;;;;5014260;28;20416;-92
2021/07/13 01:49:50;;;;;;;15.03;14.03;;;19.40;99.90;;;;;;5032708;28;20415;-91
2021/07/13 01:52:23;;;;;;;15.90;14.60;;;19.40;99.90;;;;;;5017606;28;20475;-91
2021/07/13 01:54:53;;;;;;;15.40;14.20;;;19.50;99.90;;;;;;5035981;28;20408;-91
2021/07/13 01:57:35;;;;;;;17.97;16.57;;;19.40;99.90;;;;;;5034532;28;20442;-91
2021/07/13 02:00:13;;;;;;;17.00;15.70;;;19.40;99.90;;;;;;5017970;28;20484;-91
2021/07/13 02:02:49;;;;;;;19.70;18.20;;;19.40;99.90;;;;;;5017634;28;20411;-91
2021/07/13 02:18:43;;;;;;;19.80;18.10;;;19.30;99.90;;;;;;5567315;23;20455;-92
2021/07/13 02:34:45;;;;;;;17.20;15.90;;;19.50;99.90;;;;;;5748667;23;20492;-91
2021/07/13 02:47:41;;;;;;;18.47;16.97;;;19.50;99.90;;;;;;5597897;23;20490;-92
2021/07/13 02:50:51;;;;;;;17.27;15.97;;;19.60;99.90;;;;;;4991704;28;20799;-92
2021/07/13 03:13:31;;;;;;;15.97;14.77;;;19.40;99.90;;;;;;5108263;23;20518;-91
2021/07/13 03:16:34;;;;;;;17.60;16.10;;;19.50;99.90;;;;;;5032306;28;20447;-92
2021/07/13 03:19:55;;;;;;;19.17;17.57;;;21.90;99.90;;;;;;5038896;28;20477;-92
2021/07/13 03:22:31;;;;;;;21.20;18.77;;;20.40;99.90;;;;;;5075743;22;20466;-90
2021/07/13 03:25:02;;;;;;;19.57;17.67;;;19.20;99.90;;;;;;5022144;28;20482;-90
2021/07/13 03:27:31;;;;;;;22.50;20.40;;;19.20;99.90;;;;;;5020970;28;20450;-91
2021/07/13 03:29:58;;;;;;;21.80;19.90;;;19.20;99.90;;;;;;5039472;28;20411;-92
2021/07/13 03:32:24;;;;;;;23.57;21.47;;;19.20;99.90;;;;;;5021988;28;20472;-90
2021/07/13 03:34:54;;;;;;;23.47;21.47;;;19.30;99.90;;;;;;5039584;28;20427;-90
2021/07/13 03:40:00;;;;;;;21.97;19.97;;;19.20;99.90;;;;;;5270648;23;20490;-91
2021/07/13 03:42:31;;;;;;;20.63;18.77;;;19.20;99.90;;;;;;5022064;28;20455;-92
2021/07/13 03:45:17;;;;;;;21.23;19.33;;;21.90;99.90;;;;;;5021100;28;20403;-92
2021/07/13 03:47:46;;;;;;;19.97;18.00;;;19.30;99.90;;;;;;5393885;23;20467;-91
2021/07/13 03:50:12;;;;;;;20.07;18.57;;;19.20;99.90;;;;;;5021078;28;20443;-89
2021/07/13 03:58:13;;;;;;;17.37;15.97;;;19.20;99.90;;;;;;5597897;23;20479;-90
2021/07/13 04:14:31;;;;;;;15.73;14.53;;;19.20;99.90;;;;;;5247498;23;20463;-91
2021/07/13 04:16:59;;;;;;;13.87;12.77;;;19.20;99.90;;;;;;5022323;28;20482;-91
2021/07/13 04:22:00;;;;;;;16.90;15.43;;;19.30;99.90;;;;;;5558866;22;20501;-90
2021/07/13 04:24:29;;;;;;;15.37;14.17;;;19.30;99.90;;;;;;5021117;28;20498;-92
2021/07/13 04:26:55;;;;;;;13.10;11.93;;;19.30;99.90;;;;;;5599628;23;20448;-90
2021/07/13 04:29:22;;;;;;;13.50;12.50;;;16.80;99.90;;;;;;5460224;23;20481;-89
2021/07/13 04:40:17;;;;;;;14.60;13.50;;;19.40;99.90;;;;;;5167959;22;20547;-91
2021/07/13 04:42:45;;;;;;;16.97;14.40;;;19.40;99.90;;;;;;5436666;23;21890;-91
2021/07/13 04:48:00;;;;;;;16.87;15.57;;;19.50;99.90;;;;;;5774060;23;20486;-91
2021/07/13 04:50:52;;;;;;;15.43;14.00;;;19.30;99.90;;;;;;5259375;23;22002;-87
2021/07/13 04:53:18;;;;;;;16.57;15.37;;;19.50;99.90;;;;;;4975238;28;20453;-92
2021/07/13 04:58:27;;;;;;;15.77;14.37;;;19.40;99.90;;;;;;5119181;22;20475;-90
2021/07/13 05:03:39;;;;;;;16.33;14.93;;;19.40;99.90;;;;;;5200962;23;20563;-92
2021/07/13 05:06:09;;;;;;;17.57;15.80;;;19.40;99.90;;;;;;5017989;28;20425;-91
2021/07/13 05:11:13;;;;;;;22.07;19.90;;;19.30;99.90;;;;;;5240815;23;20466;-91
2021/07/13 05:13:40;;;;;;;20.30;18.50;;;19.00;99.90;;;;;;5018813;28;20424;-91
2021/07/13 05:16:09;;;;;;;18.50;16.80;;;19.30;99.90;;;;;;5018403;28;20444;-91
2021/07/13 05:18:36;;;;;;;18.17;16.60;;;19.30;99.90;;;;;;5036934;28;20411;-89
2021/07/13 05:21:04;;;;;;;18.43;16.50;;;19.40;99.90;;;;;;5145421;23;20494;-91
2021/07/13 05:23:31;;;;;;;16.60;15.13;;;19.40;99.90;;;;;;5031725;28;20411;-88
2021/07/13 05:25:56;;;;;;;17.37;15.90;;;19.50;99.90;;;;;;5033225;28;20404;-92
2021/07/13 05:28:26;;;;;;;18.20;16.40;;;19.50;99.90;;;;;;5012840;28;20426;-91
2021/07/13 05:30:52;;;;;;;22.87;20.43;;;19.40;99.90;;;;;;5033905;28;20163;-89
2021/07/13 05:33:25;;;;;;;19.70;17.80;;;19.30;99.90;;;;;;5016077;28;20464;-91
2021/07/13 05:36:07;;;;;;;21.23;19.23;;;19.40;99.90;;;;;;5032783;28;20759;-90
2021/07/13 05:38:33;;;;;;;21.67;19.67;;;19.30;99.90;;;;;;5031857;28;20499;-87
2021/07/13 05:40:59;;;;;;;22.60;20.50;;;19.40;99.90;;;;;;5017787;28;20430;-91
2021/07/13 05:43:29;;;;;;;22.63;20.33;;;19.40;99.90;;;;;;5191060;23;20224;-91
2021/07/13 05:46:04;;;;;;;23.07;20.97;;;19.50;99.90;;;;;;5015306;28;20451;-90
2021/07/13 05:48:32;;;;;;;22.70;20.50;;;18.80;99.90;;;;;;4983340;28;20415;-90
2021/07/13 05:51:33;;;;;;;25.87;20.13;;;19.40;99.90;;;;;;5012583;28;20436;-92
2021/07/13 05:53:59;;;;;;;21.10;19.00;;;18.70;99.90;;;;;;5009349;28;20582;-92
2021/07/13 05:56:26;;;;;;;21.50;19.53;;;19.50;99.90;;;;;;5013298;28;20484;-92
2021/07/13 05:59:08;;;;;;;;;;;;;;;;;;;;;
2021/07/13 06:01:34;;;;;;;22.80;20.57;;;19.60;99.90;;;;;;5010096;28;20448;-91
2021/07/13 06:03:59;;;;;;;19.60;17.70;;;19.50;99.90;;;;;;5009774;28;20408;-90
2021/07/13 06:06:27;;;;;;;23.13;21.10;;;19.30;99.90;;;;;;5012361;28;20205;-90
2021/07/13 06:08:55;;;;;;;20.50;18.87;;;20.40;99.90;;;;;;4996077;28;20216;-91
2021/07/13 06:11:21;;;;;;;22.90;20.70;;;20.30;99.90;;;;;;5010670;28;20471;-89
2021/07/13 06:14:02;;;;;;;20.70;18.90;;;19.50;99.90;;;;;;4996763;28;20523;-91
2021/07/13 06:16:33;;;;;;;20.60;18.90;;;19.50;99.90;;;;;;5013532;28;20416;-92
2021/07/13 06:18:59;;;;;;;20.40;18.70;;;21.20;99.90;;;;;;5012158;28;20421;-89
2021/07/13 06:21:41;;;;;;;20.00;18.30;;;19.70;99.90;;;;;;5014123;28;20512;-91
2021/07/13 06:24:32;;;;;;;22.07;19.73;;;19.60;99.90;;;;;;5010993;28;20186;-91
2021/07/13 06:27:30;;;;;;;23.50;21.27;;;22.40;99.90;;;;;;4994742;28;20433;-90
2021/07/13 06:30:35;;;;;;;27.40;24.63;;;20.00;99.90;;;;;;4996901;28;20421;-89
2021/07/13 06:36:14;;;;;;;26.10;23.40;;;19.70;99.90;;;;;;5038822;28;20449;-89
2021/07/13 06:39:32;;;;;;;27.90;25.20;;;22.20;99.90;;;;;;5024507;28;20419;-90
2021/07/13 06:42:29;;;;;;;36.47;30.07;;;22.40;99.90;;;;;;5017264;28;20446;-92
2021/07/13 06:45:15;;;;;;;29.50;26.53;;;22.60;99.90;;;;;;5036369;28;20423;-90
2021/07/13 06:47:57;;;;;;;28.93;26.03;;;22.00;99.90;;;;;;5019972;28;20430;-90
2021/07/13 06:50:46;;;;;;;26.43;23.83;;;22.50;99.90;;;;;;5019242;28;20447;-91
2021/07/13 06:53:17;;;;;;;28.00;25.50;;;21.20;99.90;;;;;;5018851;28;20475;-90
2021/07/13 06:56:03;;;;;;;28.17;25.40;;;20.10;99.90;;;;;;5035996;28;20415;-91
2021/07/13 06:59:08;;;;;;;32.53;29.27;;;20.00;99.90;;;;;;5032646;28;20438;-90
2021/07/13 07:04:25;;;;;;;31.27;27.97;;;20.10;99.90;;;;;;5032719;28;20442;-88
2021/07/13 07:07:19;;;;;;;34.33;30.10;;;20.10;99.90;;;;;;5001972;28;20413;-90
2021/07/13 07:09:46;;;;;;;34.53;30.80;;;21.50;99.90;;;;;;5014587;28;20465;-90
2021/07/13 07:12:22;;;;;;;33.60;30.40;;;20.20;99.90;;;;;;5018052;28;20478;-90
2021/07/13 07:15:10;;;;;;;34.57;30.87;;;22.90;99.90;;;;;;5018920;28;20427;-90
2021/07/13 07:18:03;;;;;;;36.10;32.30;;;20.10;99.90;;;;;;5034349;28;20423;-91
2021/07/13 07:20:29;;;;;;;34.53;31.07;;;20.10;99.90;;;;;;5028775;28;20450;-89
2021/07/13 07:22:57;;;;;;;38.67;34.27;;;20.10;99.90;;;;;;5018183;28;20407;-90
2021/07/13 07:25:24;;;;;;;36.70;32.87;;;20.10;99.90;;;;;;5016119;28;20457;-90
2021/07/13 07:27:55;;;;;;;37.63;33.77;;;20.10;99.90;;;;;;5033861;28;20420;-92
2021/07/13 07:30:21;;;;;;;41.93;34.97;;;20.20;99.90;;;;;;4991916;28;20435;-92
2021/07/13 07:32:59;;;;;;;44.43;36.93;;;20.30;99.90;;;;;;5014858;28;20499;-91
2021/07/13 07:35:24;;;;;;;39.17;33.77;;;21.70;99.90;;;;;;5017024;28;20439;-90
2021/07/13 07:37:54;;;;;;;44.57;38.90;;;20.60;99.90;;;;;;5012967;28;20422;-90
2021/07/13 07:40:23;;;;;;;38.07;34.30;;;20.30;99.90;;;;;;5028849;28;20427;-87
2021/07/13 07:42:52;;;;;;;42.47;37.97;;;20.20;99.90;;;;;;5243795;22;20494;-89
2021/07/13 07:45:24;;;;;;;48.30;40.20;;;20.10;99.90;;;;;;5019051;28;20472;-92
2021/07/13 07:47:53;;;;;;;45.87;39.80;;;22.00;99.90;;;;;;5018172;28;20521;-89
2021/07/13 07:50:24;;;;;;;44.43;39.70;;;20.10;99.90;;;;;;5034399;28;20439;-91
2021/07/13 07:52:50;;;;;;;44.57;39.83;;;20.20;99.90;;;;;;5035567;28;20535;-90
2021/07/13 07:55:19;;;;;;;47.60;42.43;;;20.20;99.90;;;;;;5015277;28;20415;-90
2021/07/13 07:57:48;;;;;;;50.43;41.37;;;20.10;99.90;;;;;;5033050;28;20427;-89
2021/07/13 08:00:31;;;;;;;48.70;42.10;;;20.10;99.90;;;;;;5033839;28;20674;-92
2021/07/13 08:02:57;;;;;;;47.60;42.60;;;22.50;99.90;;;;;;5015657;28;20454;-90
2021/07/13 08:06:08;;;;;;;;;;;;;;;;;;;;;
2021/07/13 08:09:09;;;;;;;48.00;41.73;;;20.30;99.90;;;;;;5037136;28;20471;-90
2021/07/13 08:15:04;;;;;;;47.17;41.17;;;23.00;99.90;;;;;;5036307;28;20407;-91
2021/07/13 08:17:30;;;;;;;49.37;43.97;;;20.40;99.90;;;;;;5030612;28;20427;-90
2021/07/13 08:20:31;;;;;;;47.47;42.57;;;20.50;99.90;;;;;;5031945;28;20432;-92
2021/07/13 08:23:06;;;;;;;44.37;39.57;;;21.50;99.90;;;;;;5017141;28;20591;-92
2021/07/13 08:25:32;;;;;;;43.90;39.33;;;20.60;99.90;;;;;;5002627;28;20407;-89
2021/07/13 08:27:58;;;;;;;45.80;41.10;;;20.60;99.90;;;;;;5016606;28;20442;-90
2021/07/13 08:30:24;;;;;;;45.60;39.90;;;19.40;99.90;;;;;;5018794;28;20160;-92
2021/07/13 08:32:55;;;;;;;43.88;39.30;;;20.60;99.90;;;;;;4823870;23;10002292;-90
2021/07/13 08:35:21;;;;;;;43.37;38.50;;;20.50;99.90;;;;;;5086450;23;20497;-89
2021/07/13 08:37:48;;;;;;;43.53;38.93;;;20.40;99.90;;;;;;5017296;28;21014;-91
2021/07/13 08:40:18;;;;;;;46.80;41.70;;;20.60;99.90;;;;;;5017762;28;20176;-90
2021/07/13 08:42:50;;;;;;;43.17;38.47;;;20.70;99.90;;;;;;5129567;23;20488;-91
2021/07/13 08:45:21;;;;;;;43.53;39.20;;;20.80;99.90;;;;;;4992119;28;20476;-90
2021/07/13 08:47:50;;;;;;;45.70;40.97;;;20.70;99.90;;;;;;5011557;28;20424;-89
2021/07/13 08:50:26;;;;;;;44.73;40.00;;;20.60;99.90;;;;;;5012215;28;20428;-89
2021/07/13 08:53:04;;;;;;;46.70;42.00;;;20.20;99.90;;;;;;5006638;28;20522;-88
2021/07/13 08:55:34;;;;;;;45.50;40.67;;;20.80;99.90;;;;;;5008278;28;20416;-90
2021/07/13 08:58:00;;;;;;;46.43;41.37;;;20.90;99.90;;;;;;5007516;28;20503;-89
2021/07/13 09:00:37;;;;;;;46.50;41.17;;;21.00;99.90;;;;;;5009300;28;20503;-89
2021/07/13 09:03:07;;;;;;;47.90;42.70;;;22.80;99.90;;;;;;4991343;28;20495;-88
2021/07/13 09:05:52;;;;;;;45.33;40.53;;;21.20;99.90;;;;;;5008381;28;20423;-88
2021/07/13 09:08:32;;;;;;;47.90;42.87;;;20.40;99.90;;;;;;4989824;28;20425;-89
2021/07/13 09:11:14;;;;;;;47.93;42.83;;;21.30;99.90;;;;;;5008895;28;20468;-88
2021/07/13 09:13:58;;;;;;;44.30;40.00;;;20.80;99.90;;;;;;4993613;28;20515;-89
2021/07/13 09:16:30;;;;;;;49.27;44.30;;;23.30;99.90;;;;;;4994738;28;20483;-88
2021/07/13 09:18:58;;;;;;;54.13;48.50;;;21.60;94.80;;;;;;5011642;28;20527;-90
2021/07/13 09:21:35;;;;;;;49.37;43.97;;;21.70;97.30;;;;;;5010978;28;20475;-89
2021/07/13 09:24:11;;;;;;;48.03;42.80;;;24.90;97.70;;;;;;5012323;28;20415;-88
2021/07/13 09:26:44;;;;;;;47.07;42.27;;;22.40;95.90;;;;;;5009666;28;20874;-88
2021/07/13 09:29:37;;;;;;;47.90;42.63;;;23.80;96.20;;;;;;5007524;28;20431;-89
2021/07/13 09:32:39;;;;;;;45.70;41.03;;;22.80;93.70;;;;;;5004200;28;20456;-87
2021/07/13 09:35:13;;;;;;;48.83;42.53;;;24.30;94.50;;;;;;5004698;28;20428;-88
2021/07/13 09:37:51;;;;;;;47.60;42.87;;;23.40;96.80;;;;;;5010247;28;20428;-89
2021/07/13 09:40:41;;;;;;;47.77;42.97;;;23.40;94.90;;;;;;5013459;28;20417;-88
2021/07/13 09:43:07;;;;;;;48.23;43.30;;;22.80;93.40;;;;;;5322069;23;20487;-92
2021/07/13 09:45:39;;;;;;;47.17;42.60;;;23.60;98.70;;;;;;5009767;28;20579;-90
2021/07/13 09:48:13;;;;;;;47.10;42.40;;;25.10;98.70;;;;;;5005125;28;20181;-90
2021/07/13 09:50:49;;;;;;;44.03;39.53;;;24.90;97.50;;;;;;5026968;28;20848;-88
2021/07/13 09:53:17;;;;;;;47.33;42.60;;;23.10;94.10;;;;;;5026962;28;20463;-90
2021/07/13 09:55:44;;;;;;;44.20;39.00;;;25.90;96.10;;;;;;5012540;28;20420;-90
2021/07/13 09:58:55;;;;;;;43.43;39.13;;;24.70;94.10;;;;;;5036462;28;20435;-91
2021/07/13 10:01:21;;;;;;;38.70;35.03;;;25.50;93.70;;;;;;5019880;28;20443;-90
2021/07/13 10:04:01;;;;;;;40.90;37.03;;;23.30;92.80;;;;;;5018890;28;20454;-89
2021/07/13 10:07:02;;;;;;;40.87;36.67;;;25.00;92.20;;;;;;5038235;28;20180;-91
2021/07/13 10:12:50;;;;;;;38.80;35.20;;;24.50;90.60;;;;;;5278101;23;20532;-92
2021/07/13 10:15:22;;;;;;;37.30;33.90;;;24.50;88.20;;;;;;5008621;28;20411;-90
2021/07/13 10:18:31;;;;;;;38.30;34.67;;;24.00;85.10;;;;;;5035733;28;20494;-92
2021/07/13 10:21:00;;;;;;;36.77;33.37;;;24.30;79.70;;;;;;5030520;28;20486;-88
2021/07/13 10:23:31;;;;;;;37.63;33.90;;;24.70;83.10;;;;;;5030315;28;20404;-89
2021/07/13 10:32:03;;;;;;;37.33;33.70;;;23.80;81.00;;;;;;5426047;23;20494;-91
2021/07/13 10:35:23;;;;;;;;;;;;;;;;;;;;;
2021/07/13 10:44:40;;;;;;;;;;;;;;;;;;;;;
2021/07/13 10:47:37;;;;;;;31.93;28.87;;;26.50;79.80;;;;;;5180849;23;20506;-91
2021/07/13 10:50:36;;;;;;;33.10;29.93;;;26.60;80.30;;;;;;5016151;28;20454;-94
2021/07/13 10:53:19;;;;;;;30.27;27.57;;;23.90;77.40;;;;;;5023949;28;20517;-89
2021/07/13 10:56:28;;;;;;;31.13;28.33;;;24.60;78.30;;;;;;5003619;28;20990;-90
2021/07/13 11:02:36;;;;;;;30.20;27.30;;;26.50;80.20;;;;;;4950270;29;20434;-90
2021/07/13 11:12:33;;;;;;;26.27;23.97;;;24.30;77.20;;;;;;4886136;29;20473;-92
2021/07/13 11:15:05;;;;;;;25.50;23.30;;;24.50;76.70;;;;;;4917344;29;20427;-88
2021/07/13 11:17:31;;;;;;;32.73;29.87;;;23.40;74.70;;;;;;4943221;29;20439;-92
2021/07/13 11:20:28;;;;;;;26.60;24.50;;;25.80;84.10;;;;;;4995928;28;20420;-93
2021/07/13 11:22:53;;;;;;;24.50;22.33;;;24.60;73.20;;;;;;4986632;28;20492;-92
2021/07/13 11:25:29;;;;;;;25.20;23.00;;;25.00;78.80;;;;;;5011370;28;20425;-89
2021/07/13 11:28:19;;;;;;;;;;;;;;;;;;;;;
2021/07/13 11:30:52;;;;;;;24.43;22.30;;;23.60;71.70;;;;;;5010555;28;20444;-92
2021/07/13 11:33:28;;;;;;;26.97;24.70;;;25.00;73.50;;;;;;5008712;28;20472;-91
2021/07/13 11:35:56;;;;;;;23.47;21.57;;;23.50;71.00;;;;;;4990362;28;20443;-89
2021/07/13 11:38:28;;;;;;;23.87;21.67;;;24.60;73.60;;;;;;5008153;28;20469;-93
2021/07/13 11:44:11;;;;;;;22.67;20.77;;;27.40;78.10;;;;;;4995596;28;20910;-93
2021/07/13 11:46:42;;;;;;;24.03;22.07;;;26.30;70.70;;;;;;4998221;28;20422;-92
2021/07/13 11:49:14;;;;;;;23.80;21.90;;;26.60;74.50;;;;;;4999552;28;20424;-91
2021/07/13 11:51:58;;;;;;;22.07;20.13;;;27.20;75.00;;;;;;4994626;28;20485;-94
2021/07/13 11:54:30;;;;;;;22.40;20.60;;;26.00;69.30;;;;;;4975679;28;20433;-90
2021/07/13 11:56:58;;;;;;;19.33;17.83;;;25.60;67.90;;;;;;5171473;23;21803;-92
2021/07/13 11:59:32;;;;;;;20.60;19.00;;;26.90;67.10;;;;;;5017810;28;20954;-91
2021/07/13 12:02:15;;;;;;;20.90;19.30;;;25.90;61.60;;;;;;5013773;28;20419;-94
2021/07/13 12:04:51;;;;;;;21.23;19.00;;;25.30;62.40;;;;;;5000272;28;20519;-94
2021/07/13 12:07:20;;;;;;;20.20;18.67;;;26.00;62.70;;;;;;5016879;28;20403;-89
2021/07/13 12:09:47;;;;;;;18.27;16.80;;;26.30;64.40;;;;;;5017430;28;20432;-92
2021/07/13 12:12:17;;;;;;;19.53;18.03;;;27.50;65.20;;;;;;4994535;28;20478;-93
2021/07/13 12:14:55;;;;;;;20.50;18.83;;;26.50;61.40;;;;;;5013520;28;20503;-93
2021/07/13 12:17:28;;;;;;;19.40;18.00;;;28.60;61.00;;;;;;5012955;28;20416;-93
2021/07/13 12:19:59;;;;;;;17.90;16.70;;;26.00;59.10;;;;;;5127002;23;20472;-93
2021/07/13 12:22:30;;;;;;;18.50;17.27;;;27.50;62.90;;;;;;5013884;28;20416;-90
2021/07/13 12:25:04;;;;;;;18.60;17.40;;;27.70;60.50;;;;;;5100394;23;20478;-94
2021/07/13 12:28:09;;;;;;;16.47;15.47;;;28.90;59.40;;;;;;5010187;28;20434;-96
2021/07/13 12:30:48;;;;;;;17.00;15.90;;;27.10;56.90;;;;;;5196801;23;20484;-91
2021/07/13 12:36:35;;;;;;;17.57;16.37;;;26.60;56.40;;;;;;5008327;28;20469;-96
2021/07/13 12:39:23;;;;;;;16.13;15.13;;;30.70;59.10;;;;;;5007333;28;20520;-95
2021/07/13 12:42:13;;;;;;;15.77;14.83;;;25.70;56.00;;;;;;4990556;28;20425;-94
2021/07/13 12:44:56;;;;;;;15.97;14.80;;;27.30;57.00;;;;;;5011182;28;20449;-89
2021/07/13 12:47:38;;;;;;;16.97;15.57;;;27.40;56.00;;;;;;4994531;28;20459;-93
2021/07/13 12:50:19;;;;;;;16.03;15.00;;;27.20;55.50;;;;;;4992497;28;20764;-92
2021/07/13 12:53:14;;;;;;;16.17;15.07;;;27.40;55.40;;;;;;4993881;28;20486;-91
2021/07/13 12:56:05;;;;;;;16.77;15.67;;;27.50;55.40;;;;;;5011385;28;20400;-91
2021/07/13 12:58:34;;;;;;;15.97;14.60;;;26.40;55.30;;;;;;5011718;28;20506;-92
2021/07/13 13:01:19;;;;;;;16.50;15.40;;;28.80;59.20;;;;;;5012994;28;20408;-91
2021/07/13 13:04:17;;;;;;;16.93;15.63;;;26.70;56.40;;;;;;5010369;28;20432;-92
2021/07/13 13:06:49;;;;;;;16.93;15.80;;;26.50;56.00;;;;;;5008506;28;20536;-90
2021/07/13 13:09:16;;;;;;;14.67;13.63;;;26.30;59.00;;;;;;4991031;28;20447;-94
2021/07/13 13:11:45;;;;;;;12.07;11.20;;;27.30;62.50;;;;;;4992395;28;20465;-92
2021/07/13 13:14:15;;;;;;;11.30;10.57;;;25.80;59.60;;;;;;4994867;28;20428;-89
2021/07/13 13:16:54;;;;;;;11.50;10.90;;;26.50;60.70;;;;;;5009009;28;20494;-92
2021/07/13 13:19:28;;;;;;;12.07;11.37;;;24.70;57.30;;;;;;4990046;28;20412;-92
2021/07/13 13:21:54;;;;;;;12.40;11.63;;;25.30;59.70;;;;;;5009439;28;20408;-91
2021/07/13 13:24:24;;;;;;;13.40;12.40;;;25.90;61.80;;;;;;4993139;28;20513;-93
2021/07/13 13:26:50;;;;;;;10.93;10.33;;;25.90;58.90;;;;;;4991293;28;20268;-92
2021/07/13 13:29:21;;;;;;;9.90;9.30;;;25.10;61.70;;;;;;4973840;28;20417;-91
2021/07/13 13:32:29;;;;;;;11.80;10.93;;;25.50;59.10;;;;;;4992181;28;20202;-93
2021/07/13 13:35:02;;;;;;;18.80;17.30;;;26.20;58.80;;;;;;4991058;28;20453;-88
2021/07/13 13:41:07;;;;;;;;;;;;;;;;;;;;;
2021/07/13 13:43:33;;;;;;;11.50;10.80;;;25.60;58.00;;;;;;4986871;28;20442;-93
2021/07/13 13:46:04;;;;;;;11.53;10.70;;;25.50;58.80;;;;;;4971739;28;20418;-91
2021/07/13 13:48:46;;;;;;;12.40;11.30;;;27.80;59.20;;;;;;4972376;28;20410;-90
2021/07/13 13:54:10;;;;;;;10.80;10.10;;;26.60;57.40;;;;;;4974620;28;20429;-96
2021/07/13 13:56:35;;;;;;;10.67;10.07;;;28.70;58.30;;;;;;4969324;28;20764;-87
2021/07/13 14:01:59;;;;;;;11.73;11.17;;;27.40;56.40;;;;;;4958106;28;20236;-91
2021/07/13 14:04:31;;;;;;;12.75;11.95;;;28.50;57.70;;;;;;4653324;28;10000547;-92
2021/07/13 14:07:09;;;;;;;13.27;12.40;;;26.40;58.10;;;;;;5007679;28;20181;-93
2021/07/13 14:09:40;;;;;;;13.20;12.13;;;26.60;56.50;;;;;;5008681;28;20608;-91
2021/07/13 14:12:46;;;;;;;13.97;13.20;;;26.40;59.30;;;;;;4976587;28;20468;-95
2021/07/13 14:15:35;;;;;;;17.63;16.10;;;24.00;57.50;;;;;;4994484;28;20404;-93
2021/07/13 14:18:06;;;;;;;15.30;14.20;;;27.00;63.00;;;;;;4991510;28;20493;-93
2021/07/13 14:20:38;;;;;;;14.77;13.80;;;26.80;60.90;;;;;;4993198;28;20488;-90
2021/07/13 14:23:13;;;;;;;12.00;11.20;;;26.60;61.70;;;;;;4994287;28;20424;-94
2021/07/13 14:26:06;;;;;;;22.93;20.80;;;26.60;60.00;;;;;;4994242;28;20420;-91
2021/07/13 14:28:56;;;;;;;11.27;10.73;;;26.00;60.10;;;;;;5011546;28;20427;-91
2021/07/13 14:32:09;;;;;;;18.10;16.30;;;26.40;59.50;;;;;;4990251;28;20604;-93
2021/07/13 14:34:57;;;;;;;14.67;13.47;;;25.60;59.80;;;;;;4977322;28;20417;-94
2021/07/13 14:37:57;;;;;;;14.80;13.80;;;26.20;61.90;;;;;;4990990;28;20448;-91
2021/07/13 14:40:28;;;;;;;16.23;15.13;;;25.40;61.30;;;;;;4985485;28;20477;-91
2021/07/13 14:43:00;;;;;;;18.50;17.17;;;25.50;65.20;;;;;;4970541;28;20488;-90
2021/07/13 14:45:26;;;;;;;17.50;16.00;;;26.00;66.00;;;;;;4973425;28;20432;-87
2021/07/13 14:47:52;;;;;;;19.03;17.20;;;25.60;64.70;;;;;;4989428;28;20413;-91
2021/07/13 14:50:18;;;;;;;66.07;44.40;;;28.50;71.20;;;;;;4974594;28;20421;-91
2021/07/13 14:52:50;;;;;;;22.93;20.63;;;25.50;66.90;;;;;;4991662;28;20473;-91
2021/07/13 14:55:33;;;;;;;21.50;19.70;;;25.80;65.70;;;;;;4976941;28;20174;-91
2021/07/13 14:58:00;;;;;;;19.70;18.30;;;26.80;65.30;;;;;;4954338;29;20414;-89
2021/07/13 15:00:26;;;;;;;31.40;28.30;;;25.30;71.60;;;;;;4958224;29;20430;-89
2021/07/13 15:03:03;;;;;;;;;;;;;;;;;;;;;
2021/07/13 15:05:37;;;;;;;43.97;26.70;;;25.70;65.30;;;;;;4972577;28;20209;-89
2021/07/13 15:08:18;;;;;;;20.67;19.03;;;25.30;66.00;;;;;;4960321;29;20430;-91
2021/07/13 15:10:58;;;;;;;20.40;18.87;;;25.40;65.20;;;;;;4944421;29;20441;-94
2021/07/13 15:13:29;;;;;;;21.07;19.17;;;25.60;67.20;;;;;;4970165;29;20501;-94
2021/07/13 15:15:57;;;;;;;22.27;20.63;;;29.10;70.50;;;;;;4976465;28;20436;-90
2021/07/13 15:18:27;;;;;;;23.40;21.40;;;25.40;67.30;;;;;;4992895;28;20880;-94
2021/07/13 15:21:02;;;;;;;22.00;20.50;;;27.40;73.20;;;;;;4973301;28;20413;-92
2021/07/13 15:23:32;;;;;;;32.53;29.33;;;26.90;72.80;;;;;;4992328;28;20397;-91
2021/07/13 15:26:33;;;;;;;46.10;41.57;;;25.40;70.90;;;;;;4977676;28;20444;-90
2021/07/13 15:29:00;;;;;;;33.37;30.17;;;27.60;70.90;;;;;;4993969;28;20426;-88
2021/07/13 15:31:41;;;;;;;25.60;23.47;;;25.50;68.40;;;;;;5000177;28;20548;-92
2021/07/13 15:37:43;;;;;;;25.97;23.50;;;25.50;66.20;;;;;;5011482;28;20421;-91
2021/07/13 15:40:38;;;;;;;25.00;23.03;;;26.00;70.70;;;;;;4992184;28;20453;-90
2021/07/13 15:43:16;;;;;;;24.13;22.37;;;26.70;66.50;;;;;;5004372;28;20433;-92
2021/07/13 15:45:55;;;;;;;23.30;21.30;;;24.50;60.90;;;;;;4995281;28;20496;-90
2021/07/13 15:48:36;;;;;;;25.03;22.93;;;26.20;64.60;;;;;;4992058;28;20440;-93
2021/07/13 15:51:28;;;;;;;23.90;22.00;;;29.30;68.90;;;;;;4995769;28;20536;-93
2021/07/13 15:54:23;;;;;;;24.33;22.37;;;28.50;65.80;;;;;;5010601;28;20440;-93
2021/07/13 15:57:04;;;;;;;23.87;22.03;;;27.80;66.80;;;;;;4994567;28;20479;-92
2021/07/13 15:59:42;;;;;;;25.43;23.53;;;27.80;70.10;;;;;;5011151;28;20437;-92
2021/07/13 16:02:27;;;;;;;27.07;24.90;;;27.10;64.10;;;;;;5013286;28;20459;-92
2021/07/13 16:04:57;;;;;;;25.03;22.80;;;26.60;70.70;;;;;;5010343;28;20928;-92
2021/07/13 16:07:26;;;;;;;25.70;23.40;;;25.70;64.40;;;;;;4970684;28;20500;-93
2021/07/13 16:09:52;;;;;;;24.73;22.90;;;26.00;69.60;;;;;;4974172;28;20422;-89
2021/07/13 16:12:42;;;;;;;24.30;22.30;;;24.00;68.00;;;;;;4989349;28;20472;-94
2021/07/13 16:15:14;;;;;;;24.10;22.40;;;25.70;73.90;;;;;;4990392;28;20444;-93
2021/07/13 16:17:41;;;;;;;24.63;22.53;;;24.90;69.20;;;;;;4990273;28;20473;-92
2021/07/13 16:20:08;;;;;;;25.50;23.57;;;24.60;70.70;;;;;;4992998;28;20410;-90